createdAt,value
2019-06-08T00:01:54.088Z,0.90
2019-06-08T00:04:24.157Z,1.00
2019-06-08T00:06:54.193Z,1.00
2019-06-08T00:09:24.275Z,1.02
2019-06-08T00:11:54.391Z,0.90
2019-06-08T00:14:25.587Z,1.35
2019-06-08T00:16:55.669Z,1.30
2019-06-08T00:19:25.744Z,1.00
2019-06-08T00:21:55.861Z,1.32
2019-06-08T00:24:25.904Z,1.20
2019-06-08T00:26:55.856Z,1.00
2019-06-08T00:29:26.015Z,1.10
2019-06-08T00:31:55.956Z,1.00
2019-06-08T00:34:25.989Z,1.20
2019-06-08T00:36:55.999Z,1.00
2019-06-08T00:39:26.074Z,1.40
2019-06-08T00:41:56.126Z,0.62
2019-06-08T00:44:26.227Z,1.15
2019-06-08T00:46:56.243Z,0.98
2019-06-08T00:49:26.356Z,1.20
2019-06-08T00:51:56.365Z,1.00
2019-06-08T00:54:26.477Z,1.12
2019-06-08T00:56:56.561Z,1.20
2019-06-08T00:59:26.667Z,1.10
2019-06-08T01:01:56.755Z,0.93
2019-06-08T01:04:27.263Z,1.20
2019-06-08T01:06:57.375Z,1.20
2019-06-08T01:09:27.420Z,1.12
2019-06-08T01:11:57.503Z,1.20
2019-06-08T01:14:28.755Z,1.10
2019-06-08T01:16:59.023Z,1.05
2019-06-08T01:19:29.655Z,1.00
2019-06-08T01:21:59.754Z,1.00
2019-06-08T01:24:29.993Z,0.90
2019-06-08T01:27:00.968Z,1.30
2019-06-08T01:29:31.057Z,1.07
2019-06-08T01:32:01.096Z,1.07
2019-06-08T01:34:31.179Z,0.95
2019-06-08T01:37:01.223Z,0.72
2019-06-08T01:39:32.377Z,0.90
2019-06-08T01:42:02.667Z,0.90
2019-06-08T01:44:33.644Z,0.80
2019-06-08T01:47:03.697Z,0.82
2019-06-08T01:49:33.775Z,0.78
2019-06-08T01:52:03.812Z,1.00
2019-06-08T01:54:33.831Z,0.80
2019-06-08T01:57:04.904Z,0.80
2019-06-08T01:59:34.990Z,0.80
2019-06-08T02:02:05.101Z,0.80
2019-06-08T02:04:35.208Z,0.75
2019-06-08T02:07:05.292Z,0.90
2019-06-08T02:09:35.405Z,0.82
2019-06-08T02:12:05.485Z,0.60
2019-06-08T02:14:35.591Z,0.95
2019-06-08T02:17:05.675Z,1.10
2019-06-08T02:19:35.776Z,0.78
2019-06-08T02:22:05.975Z,0.80
2019-06-08T02:24:36.030Z,0.60
2019-06-08T02:27:06.050Z,0.93
2019-06-08T02:29:37.044Z,0.80
2019-06-08T02:32:07.129Z,0.78
2019-06-08T02:34:38.205Z,0.90
2019-06-08T02:37:08.421Z,1.00
2019-06-08T02:39:39.883Z,0.80
2019-06-08T02:42:10.044Z,0.82
2019-06-08T02:44:40.632Z,0.68
2019-06-08T02:47:10.876Z,0.78
2019-06-08T02:49:40.988Z,0.80
2019-06-08T02:52:11.479Z,0.88
2019-06-08T02:54:41.979Z,0.88
2019-06-08T02:57:13.375Z,0.50
2019-06-08T02:59:44.977Z,0.60
2019-06-08T03:02:17.465Z,0.62
2019-06-08T03:04:47.940Z,0.70
2019-06-08T03:07:19.923Z,0.60
2019-06-08T03:12:22.737Z,0.82
2019-06-08T03:14:54.311Z,0.90
2019-06-08T03:17:24.256Z,0.82
2019-06-08T03:19:54.364Z,0.80
2019-06-08T03:22:24.384Z,0.70
2019-06-08T03:24:54.489Z,0.60
2019-06-08T03:27:24.572Z,0.90
2019-06-08T03:29:54.538Z,0.68
2019-06-08T03:32:24.553Z,0.90
2019-06-08T03:34:56.790Z,0.70
2019-06-08T03:37:26.157Z,0.88
2019-06-08T03:39:56.137Z,0.72
2019-06-08T03:42:26.141Z,0.70
2019-06-08T03:44:56.181Z,0.95
2019-06-08T03:47:26.339Z,1.10
2019-06-08T03:49:57.782Z,0.60
2019-06-08T03:52:28.921Z,0.78
2019-06-08T03:54:59.080Z,1.10
2019-06-08T03:57:29.044Z,1.07
2019-06-08T03:59:59.148Z,0.80
2019-06-08T04:02:29.256Z,0.88
2019-06-08T04:04:59.224Z,0.90
2019-06-08T04:07:29.265Z,0.80
2019-06-08T04:09:59.281Z,0.88
2019-06-08T04:12:29.316Z,0.75
2019-06-08T04:14:59.361Z,0.70
2019-06-08T04:17:29.372Z,0.98
2019-06-08T04:20:10.400Z,0.90
2019-06-08T04:22:31.191Z,1.12
2019-06-08T04:25:01.134Z,0.57
2019-06-08T04:27:31.173Z,0.70
2019-06-08T04:30:01.129Z,0.85
2019-06-08T04:32:31.157Z,0.70
2019-06-08T04:35:01.117Z,0.80
2019-06-08T04:37:32.183Z,0.60
2019-06-08T04:40:02.123Z,1.00
2019-06-08T04:42:34.104Z,0.90
2019-06-08T04:45:06.183Z,1.00
2019-06-08T04:50:21.655Z,0.88
2019-06-08T04:52:40.892Z,0.80
2019-06-08T04:55:11.218Z,0.90
2019-06-08T04:57:43.188Z,0.75
2019-06-08T05:00:13.735Z,0.70
2019-06-08T05:02:44.746Z,0.90
2019-06-08T05:05:15.545Z,0.70
2019-06-08T05:07:46.440Z,0.80
2019-06-08T05:10:18.264Z,0.70
2019-06-08T05:12:50.055Z,1.05
2019-06-08T05:15:20.292Z,0.90
2019-06-08T05:17:50.263Z,1.00
2019-06-08T05:20:20.340Z,1.00
2019-06-08T05:22:50.376Z,0.70
2019-06-08T05:25:20.415Z,0.80
2019-06-08T05:27:50.466Z,0.88
2019-06-08T05:30:20.572Z,0.70
2019-06-08T05:32:50.591Z,0.80
2019-06-08T05:35:20.626Z,0.70
2019-06-08T05:37:50.641Z,0.80
2019-06-08T05:40:20.772Z,0.65
2019-06-08T05:42:50.867Z,1.00
2019-06-08T05:45:20.974Z,0.88
2019-06-08T05:47:50.987Z,1.10
2019-06-08T05:50:21.097Z,0.80
2019-06-08T05:52:51.185Z,0.60
2019-06-08T05:55:21.218Z,0.80
2019-06-08T05:57:51.324Z,0.90
2019-06-08T06:00:21.627Z,0.80
2019-06-08T06:02:51.661Z,0.78
2019-06-08T06:05:21.915Z,1.12
2019-06-08T06:07:52.023Z,0.90
2019-06-08T06:10:22.103Z,0.62
2019-06-08T06:12:52.148Z,0.82
2019-06-08T06:15:22.236Z,0.70
2019-06-08T06:17:52.388Z,1.00
2019-06-08T06:20:22.473Z,1.00
2019-06-08T06:22:52.698Z,0.90
2019-06-08T06:25:22.877Z,1.00
2019-06-08T06:27:52.976Z,0.90
2019-06-08T06:30:23.059Z,0.70
2019-06-08T06:32:53.106Z,0.80
2019-06-08T06:35:23.162Z,0.80
2019-06-08T06:37:53.225Z,1.20
2019-06-08T06:40:23.235Z,0.93
2019-06-08T06:42:53.213Z,1.00
2019-06-08T06:45:23.222Z,1.02
2019-06-08T06:47:53.220Z,1.00
2019-06-08T06:50:23.304Z,0.90
2019-06-08T06:52:53.276Z,1.10
2019-06-08T06:55:25.386Z,0.95
2019-06-08T06:57:55.096Z,1.00
2019-06-08T07:00:32.700Z,1.00
2019-06-08T07:03:02.803Z,1.00
2019-06-08T07:05:32.889Z,0.82
2019-06-08T07:08:02.929Z,0.90
2019-06-08T07:10:33.007Z,1.02
2019-06-08T07:13:03.060Z,0.80
2019-06-08T07:15:41.169Z,0.62
2019-06-08T07:18:04.722Z,0.80
2019-06-08T07:20:34.799Z,0.90
2019-06-08T07:23:04.923Z,0.82
2019-06-08T07:25:34.923Z,1.05
2019-06-08T07:28:05.032Z,0.95
2019-06-08T07:30:35.048Z,1.32
2019-06-08T07:33:05.166Z,0.90
2019-06-08T07:35:35.333Z,1.05
2019-06-08T07:38:05.531Z,1.20
2019-06-08T07:40:35.576Z,0.93
2019-06-08T07:43:05.667Z,0.85
2019-06-08T07:45:35.769Z,0.98
2019-06-08T07:48:05.860Z,0.80
2019-06-08T07:50:35.967Z,1.00
2019-06-08T07:53:05.983Z,1.10
2019-06-08T07:55:36.031Z,1.40
2019-06-08T07:58:06.319Z,1.12
2019-06-08T08:00:36.430Z,1.10
2019-06-08T08:03:06.907Z,0.90
2019-06-08T08:05:37.306Z,1.40
2019-06-08T08:08:07.384Z,1.20
2019-06-08T08:10:37.484Z,1.00
2019-06-08T08:13:07.564Z,0.98
2019-06-08T08:15:37.711Z,1.00
2019-06-08T08:18:07.773Z,0.80
2019-06-08T08:20:37.809Z,1.10
2019-06-08T08:23:09.159Z,1.00
2019-06-08T08:25:39.497Z,0.93
2019-06-08T08:28:09.578Z,1.00
2019-06-08T08:30:39.688Z,1.12
2019-06-08T08:33:09.776Z,1.00
2019-06-08T08:35:39.881Z,0.85
2019-06-08T08:38:09.894Z,0.90
2019-06-08T08:40:39.851Z,1.00
2019-06-08T08:43:10.799Z,0.90
2019-06-08T08:45:41.207Z,1.17
2019-06-08T08:48:24.495Z,0.90
2019-06-08T08:50:42.948Z,1.00
2019-06-08T08:53:12.987Z,1.20
2019-06-08T08:55:43.074Z,1.12
2019-06-08T08:58:13.112Z,1.02
2019-06-08T09:00:43.204Z,1.12
2019-06-08T09:03:27.872Z,1.22
2019-06-08T09:05:45.020Z,1.05
2019-06-08T09:08:15.122Z,1.10
2019-06-08T09:10:45.133Z,1.35
2019-06-08T09:13:15.176Z,1.40
2019-06-08T09:15:47.837Z,1.20
2019-06-08T09:18:18.794Z,1.52
2019-06-08T09:20:48.690Z,1.50
2019-06-08T09:23:21.643Z,1.07
2019-06-08T09:25:53.620Z,1.10
2019-06-08T09:28:22.336Z,1.10
2019-06-08T09:30:53.839Z,1.20
2019-06-08T09:33:24.228Z,1.07
2019-06-08T09:35:54.808Z,1.30
2019-06-08T09:38:25.028Z,1.12
2019-06-08T09:40:57.445Z,1.10
2019-06-08T09:43:28.753Z,1.00
2019-06-08T09:46:00.578Z,1.10
2019-06-08T09:48:30.377Z,1.02
2019-06-08T09:51:03.699Z,1.17
2019-06-08T09:53:37.574Z,1.12
2019-06-08T09:56:06.237Z,1.30
2019-06-08T09:58:35.784Z,1.15
2019-06-08T10:01:08.597Z,1.90
2019-06-08T10:03:39.234Z,0.98
2019-06-08T10:06:12.264Z,1.20
2019-06-08T10:08:41.132Z,1.40
2019-06-08T10:11:11.168Z,1.40
2019-06-08T10:13:43.386Z,1.20
2019-06-08T10:16:12.783Z,1.32
2019-06-08T10:18:42.895Z,0.93
2019-06-08T10:21:12.939Z,1.32
2019-06-08T10:23:42.954Z,1.00
2019-06-08T10:26:12.992Z,0.98
2019-06-08T10:28:43.218Z,1.20
2019-06-08T10:31:13.302Z,1.37
2019-06-08T10:33:43.408Z,1.10
2019-06-08T10:36:13.423Z,1.30
2019-06-08T10:38:43.554Z,1.10
2019-06-08T10:41:19.011Z,1.20
2019-06-08T10:43:48.050Z,1.17
2019-06-08T10:46:20.688Z,1.32
2019-06-08T10:48:48.903Z,1.25
2019-06-08T10:51:19.012Z,1.40
2019-06-08T10:53:52.568Z,1.00
2019-06-08T10:56:20.672Z,1.22
2019-06-08T10:58:50.766Z,1.17
2019-06-08T11:01:20.864Z,1.20
2019-06-08T11:03:50.896Z,1.15
2019-06-08T11:06:20.912Z,1.22
2019-06-08T11:08:51.036Z,1.17
2019-06-08T11:11:21.112Z,1.22
2019-06-08T11:13:51.160Z,1.20
2019-06-08T11:16:21.167Z,1.32
2019-06-08T11:18:51.323Z,1.20
2019-06-08T11:21:21.345Z,1.30
2019-06-08T11:24:05.802Z,1.10
2019-06-08T11:26:24.471Z,1.00
2019-06-08T11:28:54.959Z,1.15
2019-06-08T11:31:28.193Z,0.90
2019-06-08T11:36:28.222Z,1.47
2019-06-08T11:38:59.177Z,1.05
2019-06-08T11:41:30.119Z,1.20
2019-06-08T11:44:02.021Z,1.25
2019-06-08T11:49:05.880Z,1.10
2019-06-08T11:51:33.080Z,1.40
2019-06-08T11:54:03.025Z,1.32
2019-06-08T11:56:33.131Z,1.17
2019-06-08T11:59:03.519Z,1.00
2019-06-08T12:01:33.559Z,1.20
2019-06-08T12:04:03.659Z,1.02
2019-06-08T12:06:34.643Z,1.10
2019-06-08T12:09:09.095Z,0.98
2019-06-08T12:11:38.452Z,1.10
2019-06-08T12:14:10.794Z,1.20
2019-06-08T12:16:40.180Z,1.07
2019-06-08T12:19:13.664Z,1.20
2019-06-08T12:21:41.920Z,1.00
2019-06-08T12:24:12.356Z,1.02
2019-06-08T12:26:42.480Z,1.07
2019-06-08T12:29:13.471Z,1.25
2019-06-08T12:31:44.219Z,1.10
2019-06-08T12:34:15.520Z,1.02
2019-06-08T12:36:47.954Z,1.32
2019-06-08T12:39:20.959Z,1.07
2019-06-08T12:41:49.267Z,1.15
2019-06-08T12:44:20.395Z,1.10
2019-06-08T12:49:20.481Z,1.30
2019-06-08T12:51:51.880Z,1.00
2019-06-08T12:54:22.021Z,1.40
2019-06-08T12:56:52.127Z,1.02
2019-06-08T12:59:23.109Z,1.50
2019-06-08T13:01:53.228Z,0.93
2019-06-08T13:04:23.979Z,1.37
2019-06-08T13:06:54.141Z,1.05
2019-06-08T13:09:24.159Z,1.00
2019-06-08T13:11:56.384Z,1.00
2019-06-08T13:16:54.864Z,1.42
2019-06-08T13:19:24.834Z,1.30
2019-06-08T13:21:54.916Z,1.17
2019-06-08T13:24:25.024Z,1.15
2019-06-08T13:26:57.765Z,1.50
2019-06-08T13:29:28.057Z,1.65
2019-06-08T13:32:01.621Z,1.10
2019-06-08T13:34:30.878Z,1.27
2019-06-08T13:37:01.031Z,1.00
2019-06-08T13:39:31.203Z,1.20
2019-06-08T13:42:01.202Z,1.15
2019-06-08T13:44:31.242Z,1.20
2019-06-08T13:47:01.265Z,1.35
2019-06-08T13:49:31.377Z,1.20
2019-06-08T13:52:01.456Z,1.20
2019-06-08T13:54:32.528Z,1.10
2019-06-08T13:57:02.815Z,1.25
2019-06-08T13:59:32.928Z,1.50
2019-06-08T14:02:03.014Z,1.35
2019-06-08T14:04:33.228Z,1.20
2019-06-08T14:07:03.264Z,1.12
2019-06-08T14:09:33.352Z,1.27
2019-06-08T14:12:03.534Z,1.07
2019-06-08T14:14:33.914Z,1.17
2019-06-08T14:17:05.003Z,1.30
2019-06-08T14:19:35.101Z,1.27
2019-06-08T14:22:05.200Z,1.10
2019-06-08T14:24:37.605Z,1.50
2019-06-08T14:27:08.259Z,1.25
2019-06-08T14:29:38.329Z,4.20
2019-06-08T14:32:08.443Z,1.10
2019-06-08T14:34:38.944Z,1.30
2019-06-08T14:37:08.951Z,1.12
2019-06-08T14:39:38.968Z,1.50
2019-06-08T14:42:08.939Z,0.98
2019-06-08T14:44:39.023Z,1.15
2019-06-08T14:47:10.635Z,1.27
2019-06-08T14:49:40.852Z,1.35
2019-06-08T14:52:11.015Z,1.40
2019-06-08T14:54:41.035Z,1.50
2019-06-08T14:57:14.272Z,1.52
2019-06-08T14:59:44.369Z,1.00
2019-06-08T15:02:14.424Z,1.30
2019-06-08T15:04:44.435Z,1.30
2019-06-08T15:07:14.557Z,1.10
2019-06-08T15:09:44.632Z,1.27
2019-06-08T15:12:14.667Z,1.20
2019-06-08T15:14:44.677Z,2.25
2019-06-08T15:17:14.791Z,1.70
2019-06-08T15:19:44.756Z,1.10
2019-06-08T15:22:14.773Z,1.50
2019-06-08T15:24:44.744Z,1.75
2019-06-08T15:27:14.675Z,1.10
2019-06-08T15:29:44.790Z,1.40
2019-06-08T15:32:14.799Z,1.60
2019-06-08T15:34:44.762Z,1.57
2019-06-08T15:37:14.704Z,1.50
2019-06-08T15:39:44.815Z,1.32
2019-06-08T15:42:14.859Z,1.35
2019-06-08T15:44:44.791Z,1.30
2019-06-08T15:47:14.875Z,1.27
2019-06-08T15:49:44.983Z,1.20
2019-06-08T15:52:17.406Z,1.30
2019-06-08T15:54:48.441Z,1.20
2019-06-08T15:57:19.114Z,1.12
2019-06-08T15:59:49.810Z,1.20
2019-06-08T16:02:19.892Z,1.40
2019-06-08T16:04:50.003Z,1.50
2019-06-08T16:07:21.150Z,1.30
2019-06-08T16:09:51.361Z,1.60
2019-06-08T16:12:21.338Z,1.20
2019-06-08T16:14:51.371Z,1.65
2019-06-08T16:17:21.392Z,1.20
2019-06-08T16:19:53.224Z,2.12
2019-06-08T16:22:23.067Z,1.17
2019-06-08T16:24:53.113Z,1.47
2019-06-08T16:27:23.119Z,1.40
2019-06-08T16:29:53.159Z,1.30
2019-06-08T16:32:23.464Z,1.50
2019-06-08T16:34:53.500Z,1.42
2019-06-08T16:37:23.583Z,1.40
2019-06-08T16:39:53.551Z,1.35
2019-06-08T16:42:23.652Z,1.50
2019-06-08T16:44:53.772Z,1.35
2019-06-08T16:47:23.977Z,1.42
2019-06-08T16:49:54.015Z,1.37
2019-06-08T16:52:24.323Z,1.52
2019-06-08T16:54:54.292Z,1.85
2019-06-08T16:57:25.235Z,1.30
2019-06-08T16:59:55.263Z,1.32
2019-06-08T17:02:25.288Z,1.37
2019-06-08T17:04:55.256Z,1.75
2019-06-08T17:07:25.341Z,1.32
2019-06-08T17:09:55.311Z,1.72
2019-06-08T17:12:25.463Z,1.40
2019-06-08T17:14:55.602Z,1.20
2019-06-08T17:17:25.520Z,1.40
2019-06-08T17:19:55.559Z,1.57
2019-06-08T17:22:25.643Z,1.45
2019-06-08T17:24:55.858Z,1.40
2019-06-08T17:27:27.192Z,1.45
2019-06-08T17:29:58.391Z,1.50
2019-06-08T17:32:28.474Z,1.37
2019-06-08T17:34:58.451Z,1.72
2019-06-08T17:37:28.524Z,1.20
2019-06-08T17:39:58.632Z,1.50
2019-06-08T17:42:29.794Z,1.30
2019-06-08T17:44:59.830Z,1.35
2019-06-08T17:47:29.911Z,1.50
2019-06-08T17:50:00.291Z,1.67
2019-06-08T17:52:30.499Z,1.35
2019-06-08T17:55:00.607Z,1.95
2019-06-08T17:57:42.456Z,1.42
2019-06-08T18:00:02.739Z,1.98
2019-06-08T18:02:33.663Z,1.98
2019-06-08T18:05:03.852Z,1.40
2019-06-08T18:07:34.031Z,1.77
2019-06-08T18:10:07.179Z,1.77
2019-06-08T18:12:41.174Z,2.00
2019-06-08T18:15:09.627Z,1.80
2019-06-08T18:17:42.001Z,1.90
2019-06-08T18:20:13.970Z,1.75
2019-06-08T18:22:44.798Z,1.85
2019-06-08T18:25:17.424Z,2.00
2019-06-08T18:28:05.018Z,1.92
2019-06-08T18:30:21.016Z,1.57
2019-06-08T18:32:51.056Z,1.72
2019-06-08T18:35:21.237Z,1.67
2019-06-08T18:37:52.814Z,1.57
2019-06-08T18:40:22.895Z,2.83
2019-06-08T18:42:53.332Z,2.25
2019-06-08T18:45:23.393Z,1.57
2019-06-08T18:47:53.539Z,1.85
2019-06-08T18:50:23.620Z,1.80
2019-06-08T18:52:53.780Z,1.60
2019-06-08T18:55:23.856Z,1.82
2019-06-08T18:57:53.892Z,1.72
2019-06-08T19:00:39.771Z,1.62
2019-06-08T19:03:09.392Z,1.72
2019-06-08T19:05:42.605Z,1.50
2019-06-08T19:08:12.603Z,1.90
2019-06-08T19:10:43.949Z,1.70
2019-06-08T19:13:14.096Z,1.85
2019-06-08T19:15:46.463Z,1.80
2019-06-08T19:18:17.843Z,2.10
2019-06-08T19:20:48.918Z,2.08
2019-06-08T19:23:21.378Z,1.87
2019-06-08T19:25:51.176Z,1.62
2019-06-08T19:28:35.176Z,1.65
2019-06-08T19:30:53.032Z,1.80
2019-06-08T19:33:23.074Z,1.85
2019-06-08T19:35:53.806Z,1.70
2019-06-08T19:38:24.182Z,1.82
2019-06-08T19:40:54.250Z,2.10
2019-06-08T19:43:24.259Z,1.70
2019-06-08T19:45:54.228Z,1.62
2019-06-08T19:48:27.545Z,1.70
2019-06-08T19:50:58.040Z,1.90
2019-06-08T19:53:28.659Z,2.00
2019-06-08T19:55:58.816Z,1.70
2019-06-08T19:58:29.800Z,1.47
2019-06-08T20:00:59.845Z,2.08
2019-06-08T20:03:29.847Z,1.80
2019-06-08T20:05:59.883Z,1.80
2019-06-08T20:08:29.896Z,2.10
2019-06-08T20:11:00.004Z,1.87
2019-06-08T20:13:30.019Z,1.85
2019-06-08T20:16:02.371Z,2.20
2019-06-08T20:18:32.662Z,2.22
2019-06-08T20:21:02.636Z,2.10
2019-06-08T20:23:32.649Z,1.90
2019-06-08T20:26:02.777Z,2.30
2019-06-08T20:28:32.767Z,1.75
2019-06-08T20:31:02.813Z,2.30
2019-06-08T20:33:32.829Z,2.62
2019-06-08T20:36:04.003Z,2.17
2019-06-08T20:38:38.403Z,2.08
2019-06-08T20:41:07.587Z,2.40
2019-06-08T20:43:38.179Z,2.47
2019-06-08T20:46:09.183Z,2.60
2019-06-08T20:48:39.147Z,2.40
2019-06-08T20:51:09.236Z,2.58
2019-06-08T20:53:39.196Z,2.50
2019-06-08T20:56:09.211Z,2.10
2019-06-08T20:58:39.250Z,2.52
2019-06-08T21:01:09.198Z,2.30
2019-06-08T21:03:39.239Z,2.65
2019-06-08T21:06:09.323Z,2.12
2019-06-08T21:08:39.431Z,2.40
2019-06-08T21:11:09.515Z,2.50
2019-06-08T21:13:39.821Z,2.70
2019-06-08T21:16:09.898Z,2.33
2019-06-08T21:18:39.865Z,2.55
2019-06-08T21:21:10.850Z,2.40
2019-06-08T21:23:40.885Z,3.27
2019-06-08T21:26:10.896Z,2.40
2019-06-08T21:28:40.872Z,2.65
2019-06-08T21:31:10.957Z,2.90
2019-06-08T21:33:41.064Z,2.30
2019-06-08T21:36:11.011Z,2.75
2019-06-08T21:38:40.979Z,2.70
2019-06-08T21:41:11.011Z,2.85
2019-06-08T21:43:41.096Z,2.90
2019-06-08T21:46:11.127Z,3.10
2019-06-08T21:48:41.212Z,2.90
2019-06-08T21:51:11.252Z,2.67
2019-06-08T21:53:41.333Z,3.02
2019-06-08T21:56:11.659Z,2.90
2019-06-08T21:58:41.740Z,3.08
2019-06-08T22:01:12.718Z,3.58
2019-06-08T22:03:42.797Z,3.00
2019-06-08T22:06:12.987Z,2.98
2019-06-08T22:08:43.000Z,3.60
2019-06-08T22:11:12.981Z,2.90
2019-06-08T22:13:43.009Z,3.10
2019-06-08T22:16:13.035Z,3.00
2019-06-08T22:18:42.986Z,2.80
2019-06-08T22:21:13.018Z,3.02
2019-06-08T22:23:43.031Z,3.02
2019-06-08T22:26:13.143Z,3.05
2019-06-08T22:28:43.152Z,2.50
2019-06-08T22:31:13.192Z,2.85
2019-06-08T22:33:43.206Z,2.47
2019-06-08T22:36:13.243Z,2.98
2019-06-08T22:38:43.332Z,2.72
2019-06-08T22:41:13.440Z,2.67
2019-06-08T22:43:43.450Z,2.90
2019-06-08T22:46:13.556Z,2.83
2019-06-08T22:48:43.572Z,2.90
2019-06-08T22:51:13.612Z,2.55
2019-06-08T22:53:43.619Z,3.00
2019-06-08T22:56:13.683Z,2.67
2019-06-08T22:58:43.664Z,2.80
2019-06-08T23:01:13.704Z,2.80
2019-06-08T23:03:43.717Z,2.40
2019-06-08T23:06:13.753Z,2.30
2019-06-08T23:08:43.837Z,2.20
2019-06-08T23:11:13.872Z,2.00
2019-06-08T23:13:43.912Z,2.17
2019-06-08T23:16:14.029Z,2.40
2019-06-08T23:18:43.995Z,2.10
2019-06-08T23:21:13.937Z,2.10
2019-06-08T23:23:43.968Z,2.02
2019-06-08T23:26:13.913Z,2.72
2019-06-08T23:28:43.957Z,1.60
2019-06-08T23:31:24.198Z,2.30
2019-06-08T23:33:47.621Z,2.10
2019-06-08T23:38:49.004Z,2.12
2019-06-08T23:41:19.024Z,2.50
2019-06-08T23:43:49.063Z,2.15
2019-06-08T23:46:19.077Z,1.85
2019-06-08T23:48:49.167Z,2.10
2019-06-08T23:51:19.250Z,1.95
2019-06-08T23:53:49.216Z,2.10
2019-06-08T23:56:19.303Z,2.37
2019-06-08T23:58:49.268Z,1.85
